Time;durP1;ratioP1;P1;durP2;ratioP2;P2;SDS_P1;SDS_P2;PMS_P1;PMS_P2;Temp;Humidity;BMP_temperature;BMP_pressure;BME280_temperature;BME280_humidity;BME280_pressure;Samples;Min_cycle;Max_cycle;Signal;HPM_P1;HPM_P2
2024/01/27 00:01:01;;;;;;;2.55;1.80;;;;;;;;;;5100457;28;20239;-81
2024/01/27 00:03:29;;;;;;;6.55;2.00;;;;;;;;;;5103403;28;20287;-81
2024/01/27 00:05:56;;;;;;;5.32;1.75;;;;;;;;;;5110311;28;20239;-80
2024/01/27 00:08:25;;;;;;;5.75;2.40;;;;;;;;;;5107639;28;20572;-81
2024/01/27 00:10:52;;;;;;;5.47;2.28;;;;;;;;;;5109795;28;20294;-80
2024/01/27 00:13:20;;;;;;;2.05;1.50;;;;;;;;;;5098413;28;20383;-80
2024/01/27 00:15:47;;;;;;;3.55;1.25;;;;;;;;;;5099697;28;20801;-81
2024/01/27 00:18:16;;;;;;;4.15;1.95;;;;;;;;;;5101001;28;20730;-80
2024/01/27 00:20:44;;;;;;;5.45;2.00;;;;;;;;;;5110676;28;20310;-81
2024/01/27 00:23:11;;;;;;;2.25;1.50;;;;;;;;;;5098544;28;20200;-81
2024/01/27 00:25:40;;;;;;;6.70;2.08;;;;;;;;;;5103433;28;20219;-81
2024/01/27 00:28:08;;;;;;;7.00;2.08;;;;;;;;;;5105661;28;20208;-81
2024/01/27 00:30:35;;;;;;;3.00;1.70;;;;;;;;;;5098724;28;20627;-81
2024/01/27 00:33:03;;;;;;;2.97;1.83;;;;;;;;;;5099026;28;20218;-81
2024/01/27 00:35:30;;;;;;;3.35;2.25;;;;;;;;;;5097164;28;20235;-80
2024/01/27 00:37:58;;;;;;;3.47;1.60;;;;;;;;;;5104855;28;20208;-79
2024/01/27 00:40:25;;;;;;;5.85;2.25;;;;;;;;;;5098322;28;20206;-80
2024/01/27 00:42:54;;;;;;;2.63;1.58;;;;;;;;;;5099145;28;20315;-79
2024/01/27 00:45:23;;;;;;;4.47;2.40;;;;;;;;;;5098278;28;20228;-79
2024/01/27 00:47:51;;;;;;;4.80;1.90;;;;;;;;;;5104401;28;20673;-81
2024/01/27 00:50:18;;;;;;;9.25;3.17;;;;;;;;;;5103095;28;20215;-79
2024/01/27 00:52:46;;;;;;;5.07;2.47;;;;;;;;;;5096983;28;20205;-80
2024/01/27 00:55:14;;;;;;;7.20;2.35;;;;;;;;;;5097294;28;20228;-81
2024/01/27 00:57:41;;;;;;;2.50;1.50;;;;;;;;;;5097087;28;20230;-81
2024/01/27 01:00:12;;;;;;;5.20;2.20;;;;;;;;;;5097265;28;20208;-80
2024/01/27 01:02:40;;;;;;;3.47;1.80;;;;;;;;;;5094234;28;20224;-81
2024/01/27 01:05:09;;;;;;;3.90;2.00;;;;;;;;;;5088747;28;20281;-79
2024/01/27 01:07:36;;;;;;;4.05;2.13;;;;;;;;;;5097828;28;20204;-80
2024/01/27 01:10:04;;;;;;;6.80;2.40;;;;;;;;;;5102455;28;20295;-80
2024/01/27 01:12:32;;;;;;;6.18;2.83;;;;;;;;;;5097558;28;20208;-80
2024/01/27 01:14:59;;;;;;;5.30;2.20;;;;;;;;;;5097206;28;20203;-79
2024/01/27 01:17:28;;;;;;;2.55;1.52;;;;;;;;;;5097050;28;20264;-81
2024/01/27 01:19:55;;;;;;;5.65;1.90;;;;;;;;;;5109495;28;20714;-81
2024/01/27 01:22:23;;;;;;;7.38;2.88;;;;;;;;;;5111811;28;20224;-79
2024/01/27 01:24:50;;;;;;;5.97;2.72;;;;;;;;;;5109617;28;20203;-80
2024/01/27 01:27:18;;;;;;;8.02;2.90;;;;;;;;;;5111806;28;20211;-81
2024/01/27 01:29:46;;;;;;;7.35;2.67;;;;;;;;;;5109791;28;20296;-81
2024/01/27 01:32:13;;;;;;;4.55;2.25;;;;;;;;;;5107724;28;20651;-80
2024/01/27 01:34:42;;;;;;;4.22;2.10;;;;;;;;;;5103903;28;20290;-80
2024/01/27 01:37:10;;;;;;;4.03;2.58;;;;;;;;;;5111571;28;20701;-79
2024/01/27 01:39:37;;;;;;;5.03;1.90;;;;;;;;;;5104724;28;20286;-80
2024/01/27 01:42:05;;;;;;;7.55;2.13;;;;;;;;;;5097208;28;20223;-81
2024/01/27 01:44:33;;;;;;;5.40;2.47;;;;;;;;;;5097397;28;20620;-79
2024/01/27 01:47:00;;;;;;;5.80;2.60;;;;;;;;;;5110451;28;20224;-81
2024/01/27 01:49:28;;;;;;;5.70;3.05;;;;;;;;;;5111329;28;20230;-80
2024/01/27 01:51:57;;;;;;;5.45;2.35;;;;;;;;;;5109930;28;20222;-79
2024/01/27 01:54:27;;;;;;;6.03;2.35;;;;;;;;;;5105584;28;20215;-79
2024/01/27 01:56:56;;;;;;;2.13;1.23;;;;;;;;;;5094401;28;20227;-81
2024/01/27 01:59:23;;;;;;;3.83;2.28;;;;;;;;;;5094692;28;20706;-79
2024/01/27 02:01:50;;;;;;;5.40;2.45;;;;;;;;;;5093822;28;20319;-79
2024/01/27 02:04:18;;;;;;;7.95;3.03;;;;;;;;;;5093861;28;20200;-81
2024/01/27 02:06:45;;;;;;;5.65;2.35;;;;;;;;;;5101292;28;20833;-80
2024/01/27 02:09:14;;;;;;;4.97;2.38;;;;;;;;;;5111202;28;20214;-81
2024/01/27 02:11:42;;;;;;;3.22;1.52;;;;;;;;;;5104395;28;20201;-80
2024/01/27 02:14:09;;;;;;;6.25;2.20;;;;;;;;;;5098531;28;20242;-81
2024/01/27 02:16:37;;;;;;;5.10;1.92;;;;;;;;;;5110620;28;20311;-80
2024/01/27 02:19:04;;;;;;;8.05;2.90;;;;;;;;;;5103457;28;20261;-79
2024/01/27 02:21:32;;;;;;;3.85;1.98;;;;;;;;;;5110990;28;20743;-80
2024/01/27 02:24:00;;;;;;;2.25;1.75;;;;;;;;;;5098282;28;20322;-80
2024/01/27 02:26:28;;;;;;;4.13;2.42;;;;;;;;;;5106683;28;20242;-80
2024/01/27 02:28:56;;;;;;;9.23;3.10;;;;;;;;;;5101119;28;20599;-80
2024/01/27 02:31:23;;;;;;;4.95;2.25;;;;;;;;;;5109808;28;20204;-80
2024/01/27 02:33:51;;;;;;;4.38;2.28;;;;;;;;;;5112339;28;20599;-79
2024/01/27 02:36:18;;;;;;;4.70;2.40;;;;;;;;;;5113794;28;20284;-80
2024/01/27 02:38:45;;;;;;;7.65;2.22;;;;;;;;;;5114630;28;20586;-81
2024/01/27 02:41:14;;;;;;;4.57;1.90;;;;;;;;;;5107930;28;20199;-81
2024/01/27 02:43:43;;;;;;;5.10;2.22;;;;;;;;;;5113500;28;20697;-80
2024/01/27 02:46:15;;;;;;;9.50;2.90;;;;;;;;;;5088879;28;20228;-81
2024/01/27 02:48:42;;;;;;;4.57;2.25;;;;;;;;;;5112773;28;20207;-79
2024/01/27 02:51:10;;;;;;;3.38;1.95;;;;;;;;;;5097412;28;20212;-79
2024/01/27 02:53:37;;;;;;;3.67;2.00;;;;;;;;;;5103850;28;20202;-79
2024/01/27 02:56:08;;;;;;;6.35;2.33;;;;;;;;;;5097377;28;20231;-79
2024/01/27 02:58:36;;;;;;;2.80;2.05;;;;;;;;;;5097464;28;20206;-80
2024/01/27 03:01:05;;;;;;;4.88;1.52;;;;;;;;;;5097175;28;20204;-79
2024/01/27 03:03:32;;;;;;;4.60;2.17;;;;;;;;;;5099896;28;20227;-80
2024/01/27 03:06:00;;;;;;;5.93;1.92;;;;;;;;;;5112448;28;20613;-80
2024/01/27 03:08:28;;;;;;;6.57;3.03;;;;;;;;;;5104029;28;20291;-80
2024/01/27 03:10:55;;;;;;;5.43;2.50;;;;;;;;;;5100848;28;20565;-80
2024/01/27 03:13:23;;;;;;;6.00;2.10;;;;;;;;;;5100269;28;20639;-79
2024/01/27 03:15:52;;;;;;;6.97;2.92;;;;;;;;;;5106152;28;20318;-81
2024/01/27 03:18:20;;;;;;;9.02;2.90;;;;;;;;;;5104581;28;20673;-81
2024/01/27 03:20:48;;;;;;;6.70;2.60;;;;;;;;;;5101213;28;20725;-81
2024/01/27 03:23:16;;;;;;;3.03;2.00;;;;;;;;;;5107943;28;20223;-81
2024/01/27 03:25:43;;;;;;;7.10;2.10;;;;;;;;;;5112033;28;20228;-80
2024/01/27 03:28:11;;;;;;;9.57;2.30;;;;;;;;;;5099798;28;20208;-80
2024/01/27 03:30:38;;;;;;;9.07;2.58;;;;;;;;;;5099806;28;20210;-81
2024/01/27 03:33:10;;;;;;;9.38;2.92;;;;;;;;;;5099844;28;20208;-79
2024/01/27 03:35:39;;;;;;;10.50;2.47;;;;;;;;;;5100460;28;20269;-79
2024/01/27 03:38:07;;;;;;;7.72;2.38;;;;;;;;;;5099678;28;20295;-79
2024/01/27 03:40:34;;;;;;;6.45;3.10;;;;;;;;;;5099610;28;20647;-80
2024/01/27 03:43:02;;;;;;;9.73;3.83;;;;;;;;;;5109561;28;20236;-80
2024/01/27 03:45:29;;;;;;;4.85;1.90;;;;;;;;;;5098711;28;20250;-80
2024/01/27 03:47:57;;;;;;;4.47;2.33;;;;;;;;;;5101009;28;20214;-80
2024/01/27 03:50:24;;;;;;;2.45;2.00;;;;;;;;;;5103856;28;20586;-81
2024/01/27 03:52:53;;;;;;;15.25;3.80;;;;;;;;;;5106438;28;20233;-81
2024/01/27 03:55:20;;;;;;;8.05;2.70;;;;;;;;;;5101611;28;20311;-81
2024/01/27 03:57:48;;;;;;;5.70;3.40;;;;;;;;;;5098786;28;20632;-80
2024/01/27 04:00:16;;;;;;;5.55;2.40;;;;;;;;;;5092028;28;20288;-80
2024/01/27 04:02:43;;;;;;;5.18;2.13;;;;;;;;;;5094162;28;20208;-79
2024/01/27 04:05:11;;;;;;;4.93;2.33;;;;;;;;;;5091676;28;20690;-80
2024/01/27 04:07:38;;;;;;;5.30;2.38;;;;;;;;;;5096049;28;20212;-80
2024/01/27 04:10:08;;;;;;;6.25;2.45;;;;;;;;;;5089250;28;20303;-80
2024/01/27 04:12:36;;;;;;;7.68;3.00;;;;;;;;;;5092317;28;20215;-80
2024/01/27 04:15:04;;;;;;;5.78;3.10;;;;;;;;;;5091111;28;20252;-80
2024/01/27 04:17:31;;;;;;;9.93;2.63;;;;;;;;;;5092188;28;20728;-78
2024/01/27 04:19:58;;;;;;;5.05;2.75;;;;;;;;;;5079908;28;20220;-80
2024/01/27 04:22:26;;;;;;;6.15;2.50;;;;;;;;;;5077922;28;20213;-79
2024/01/27 04:24:53;;;;;;;7.88;3.10;;;;;;;;;;5079894;28;20239;-81
2024/01/27 04:27:22;;;;;;;3.33;1.88;;;;;;;;;;5083599;28;20621;-80
2024/01/27 04:29:50;;;;;;;2.92;1.75;;;;;;;;;;5086268;28;20636;-80
2024/01/27 04:32:17;;;;;;;7.20;2.67;;;;;;;;;;5077607;28;20208;-80
2024/01/27 04:34:45;;;;;;;3.78;2.40;;;;;;;;;;5091613;28;20201;-80
2024/01/27 04:37:12;;;;;;;4.50;2.25;;;;;;;;;;5093566;28;20370;-80
2024/01/27 04:39:40;;;;;;;4.05;2.28;;;;;;;;;;5091400;28;20200;-80
2024/01/27 04:42:08;;;;;;;5.47;2.50;;;;;;;;;;5088369;28;20213;-80
2024/01/27 04:44:40;;;;;;;5.93;2.67;;;;;;;;;;5077416;28;20274;-79
2024/01/27 04:47:08;;;;;;;9.13;2.70;;;;;;;;;;5084951;28;20707;-79
2024/01/27 04:49:35;;;;;;;5.00;2.20;;;;;;;;;;5089414;28;20208;-79
2024/01/27 04:52:03;;;;;;;5.68;2.72;;;;;;;;;;5085478;28;20246;-80
2024/01/27 04:54:30;;;;;;;4.10;1.80;;;;;;;;;;5082819;28;20228;-79
2024/01/27 04:56:57;;;;;;;3.20;1.88;;;;;;;;;;5094269;28;20311;-80
2024/01/27 04:59:25;;;;;;;3.50;2.20;;;;;;;;;;5094412;28;20620;-78
2024/01/27 05:01:54;;;;;;;7.13;2.67;;;;;;;;;;5094081;28;20211;-80
2024/01/27 05:04:21;;;;;;;5.10;2.38;;;;;;;;;;5105856;28;20223;-81
2024/01/27 05:06:49;;;;;;;5.68;2.55;;;;;;;;;;5102793;28;20228;-81
2024/01/27 05:09:17;;;;;;;6.65;2.92;;;;;;;;;;5101707;28;20204;-79
2024/01/27 05:11:45;;;;;;;5.75;3.28;;;;;;;;;;5106865;28;20208;-79
2024/01/27 05:14:13;;;;;;;7.65;2.45;;;;;;;;;;5104112;28;20268;-79
2024/01/27 05:16:40;;;;;;;6.32;2.33;;;;;;;;;;5110998;28;20234;-79
2024/01/27 05:19:09;;;;;;;6.43;3.05;;;;;;;;;;5111364;28;20676;-78
2024/01/27 05:21:37;;;;;;;3.55;1.90;;;;;;;;;;5111765;28;20661;-78
2024/01/27 05:24:05;;;;;;;7.47;2.45;;;;;;;;;;5110549;28;20255;-80
2024/01/27 05:26:32;;;;;;;4.93;2.15;;;;;;;;;;5111825;28;20227;-79
2024/01/27 05:29:00;;;;;;;7.70;2.92;;;;;;;;;;5092679;28;20199;-81
2024/01/27 05:31:27;;;;;;;7.82;3.03;;;;;;;;;;5106714;28;20207;-80
2024/01/27 05:33:55;;;;;;;5.45;2.53;;;;;;;;;;5109964;28;20199;-81
2024/01/27 05:36:23;;;;;;;5.63;2.08;;;;;;;;;;5111571;28;20239;-80
2024/01/27 05:38:50;;;;;;;3.35;1.90;;;;;;;;;;5109550;28;20206;-80
2024/01/27 05:41:18;;;;;;;3.65;1.88;;;;;;;;;;5105457;28;20199;-80
2024/01/27 05:43:45;;;;;;;6.35;2.50;;;;;;;;;;5109801;28;20651;-79
2024/01/27 05:46:13;;;;;;;8.48;3.40;;;;;;;;;;5104596;28;20719;-79
2024/01/27 05:48:40;;;;;;;4.72;2.22;;;;;;;;;;5104306;28;20207;-79
2024/01/27 05:51:08;;;;;;;8.05;2.63;;;;;;;;;;5111085;28;20207;-79
2024/01/27 05:53:37;;;;;;;6.80;2.63;;;;;;;;;;5111626;28;20211;-79
2024/01/27 05:56:05;;;;;;;10.00;2.92;;;;;;;;;;5092416;28;20240;-79
2024/01/27 05:58:33;;;;;;;3.83;2.38;;;;;;;;;;5094332;28;20208;-79
2024/01/27 06:01:00;;;;;;;5.00;2.63;;;;;;;;;;5091693;28;20204;-78
2024/01/27 06:03:27;;;;;;;5.22;2.70;;;;;;;;;;5090932;28;20593;-79
2024/01/27 06:05:55;;;;;;;4.68;2.33;;;;;;;;;;5109844;28;20299;-80
2024/01/27 06:08:22;;;;;;;6.10;2.50;;;;;;;;;;5115623;28;20299;-80
2024/01/27 06:10:51;;;;;;;7.75;2.80;;;;;;;;;;5113287;28;20203;-80
2024/01/27 06:13:19;;;;;;;3.72;2.22;;;;;;;;;;5108114;28;20205;-81
2024/01/27 06:15:46;;;;;;;7.97;3.13;;;;;;;;;;5113331;28;20223;-80
2024/01/27 06:18:14;;;;;;;3.65;2.35;;;;;;;;;;5114955;28;20728;-79
2024/01/27 06:20:41;;;;;;;7.20;2.70;;;;;;;;;;5114934;28;20208;-78
2024/01/27 06:23:09;;;;;;;6.18;2.42;;;;;;;;;;5112777;28;20295;-79
2024/01/27 06:25:36;;;;;;;5.05;2.88;;;;;;;;;;5099518;28;20599;-80
2024/01/27 06:28:05;;;;;;;4.53;2.10;;;;;;;;;;5104172;28;20638;-79
2024/01/27 06:30:33;;;;;;;7.00;2.30;;;;;;;;;;5108464;28;20250;-81
2024/01/27 06:33:00;;;;;;;4.63;2.15;;;;;;;;;;5104421;28;20291;-81
2024/01/27 06:35:28;;;;;;;6.15;2.67;;;;;;;;;;5101525;28;20306;-80
2024/01/27 06:37:55;;;;;;;4.18;2.45;;;;;;;;;;5110131;28;20279;-81
2024/01/27 06:40:22;;;;;;;3.28;1.90;;;;;;;;;;5100543;28;20637;-82
2024/01/27 06:42:50;;;;;;;6.72;2.55;;;;;;;;;;5099286;28;20211;-82
2024/01/27 06:45:19;;;;;;;2.83;1.70;;;;;;;;;;5100867;28;20228;-81
2024/01/27 06:47:46;;;;;;;5.00;2.40;;;;;;;;;;5106482;28;20641;-82
2024/01/27 06:50:15;;;;;;;6.97;1.98;;;;;;;;;;5108269;28;20204;-79
2024/01/27 06:52:42;;;;;;;2.10;1.85;;;;;;;;;;5098594;28;20204;-79
2024/01/27 06:55:10;;;;;;;5.95;2.63;;;;;;;;;;5099247;28;20216;-82
2024/01/27 06:57:38;;;;;;;2.63;2.40;;;;;;;;;;5100852;28;20212;-80
2024/01/27 07:00:07;;;;;;;4.72;1.92;;;;;;;;;;5100999;28;20693;-81
2024/01/27 07:02:36;;;;;;;2.58;2.08;;;;;;;;;;5099575;28;20235;-80
2024/01/27 07:05:04;;;;;;;4.15;2.38;;;;;;;;;;5098876;28;20845;-81
2024/01/27 07:07:31;;;;;;;2.85;1.48;;;;;;;;;;5099660;28;20204;-79
2024/01/27 07:09:59;;;;;;;3.85;2.58;;;;;;;;;;5103550;28;20211;-81
2024/01/27 07:12:27;;;;;;;3.35;2.00;;;;;;;;;;5107845;28;20641;-80
2024/01/27 07:14:55;;;;;;;1.85;1.75;;;;;;;;;;5100808;28;20675;-80
2024/01/27 07:17:22;;;;;;;3.35;1.98;;;;;;;;;;5118309;28;20256;-81
2024/01/27 07:19:51;;;;;;;9.15;4.32;;;;;;;;;;5101461;28;20266;-81
2024/01/27 07:22:19;;;;;;;5.28;2.30;;;;;;;;;;5110799;28;20218;-79
2024/01/27 07:24:46;;;;;;;4.07;2.20;;;;;;;;;;5108774;28;20648;-80
2024/01/27 07:27:14;;;;;;;4.55;2.10;;;;;;;;;;5117620;28;20220;-82
2024/01/27 07:29:42;;;;;;;6.30;2.63;;;;;;;;;;5116102;28;20214;-82
2024/01/27 07:32:13;;;;;;;6.80;4.57;;;;;;;;;;5113481;28;20214;-80
2024/01/27 07:34:41;;;;;;;5.72;3.72;;;;;;;;;;5102634;28;20676;-80
2024/01/27 07:37:10;;;;;;;13.05;8.38;;;;;;;;;;5102629;28;20758;-80
2024/01/27 07:39:37;;;;;;;14.90;8.27;;;;;;;;;;5107307;28;20266;-81
2024/01/27 07:42:05;;;;;;;10.25;5.93;;;;;;;;;;5113714;28;20207;-81
2024/01/27 07:44:32;;;;;;;12.57;7.00;;;;;;;;;;5105793;28;20207;-80
2024/01/27 07:47:00;;;;;;;14.18;6.32;;;;;;;;;;5101127;28;20599;-80
2024/01/27 07:49:28;;;;;;;8.02;4.93;;;;;;;;;;5101600;28;20204;-80
2024/01/27 07:51:56;;;;;;;10.32;5.35;;;;;;;;;;5102830;28;20204;-82
2024/01/27 07:54:24;;;;;;;13.05;6.28;;;;;;;;;;5110066;28;20279;-81
2024/01/27 07:56:52;;;;;;;13.75;5.88;;;;;;;;;;5099573;28;20230;-80
2024/01/27 07:59:19;;;;;;;8.63;4.65;;;;;;;;;;5101379;28;20283;-79
2024/01/27 08:01:47;;;;;;;6.45;3.15;;;;;;;;;;5099328;28;20196;-81
2024/01/27 08:04:15;;;;;;;6.18;3.08;;;;;;;;;;5103485;28;20200;-81
2024/01/27 08:06:50;;;;;;;3.40;2.00;;;;;;;;;;5115445;28;20280;-79
2024/01/27 08:09:18;;;;;;;5.32;2.72;;;;;;;;;;5105832;28;20248;-81
2024/01/27 08:11:51;;;;;;;7.80;3.17;;;;;;;;;;5103677;28;20267;-79
2024/01/27 08:14:18;;;;;;;5.40;2.75;;;;;;;;;;5111492;28;20237;-80
2024/01/27 08:16:46;;;;;;;5.35;2.50;;;;;;;;;;5107133;28;20682;-80
2024/01/27 08:19:19;;;;;;;4.07;3.40;;;;;;;;;;5104196;28;20285;-80
2024/01/27 08:21:47;;;;;;;7.03;3.92;;;;;;;;;;5102162;28;20216;-81
2024/01/27 08:24:15;;;;;;;6.20;2.72;;;;;;;;;;5100155;28;20219;-81
2024/01/27 08:26:43;;;;;;;6.78;2.80;;;;;;;;;;5102957;28;20239;-80
2024/01/27 08:29:12;;;;;;;4.07;2.50;;;;;;;;;;5101460;28;20300;-80
2024/01/27 08:31:39;;;;;;;6.90;3.10;;;;;;;;;;5107623;28;20227;-80
2024/01/27 08:34:07;;;;;;;3.20;2.90;;;;;;;;;;5112014;28;20298;-82
2024/01/27 08:36:35;;;;;;;5.57;3.20;;;;;;;;;;5092975;28;20296;-80
2024/01/27 08:39:04;;;;;;;4.55;2.95;;;;;;;;;;5111988;28;20196;-82
2024/01/27 08:41:31;;;;;;;5.72;3.03;;;;;;;;;;5101077;28;20624;-80
2024/01/27 08:43:59;;;;;;;6.72;4.00;;;;;;;;;;5103480;28;20738;-81
2024/01/27 08:46:27;;;;;;;5.38;2.75;;;;;;;;;;5116608;28;20299;-83
2024/01/27 08:48:55;;;;;;;2.88;2.17;;;;;;;;;;5113822;28;20221;-81
2024/01/27 08:51:22;;;;;;;4.68;2.40;;;;;;;;;;5100901;28;20292;-81
2024/01/27 08:53:50;;;;;;;4.40;2.63;;;;;;;;;;5100290;28;20208;-81
2024/01/27 08:56:18;;;;;;;5.88;2.72;;;;;;;;;;5099447;28;20502;-82
2024/01/27 08:58:47;;;;;;;3.05;2.13;;;;;;;;;;5102714;28;20211;-81
2024/01/27 09:01:16;;;;;;;5.55;3.22;;;;;;;;;;5105655;28;20204;-81
2024/01/27 09:03:46;;;;;;;2.20;2.00;;;;;;;;;;5106567;28;20204;-80
2024/01/27 09:06:13;;;;;;;4.85;2.75;;;;;;;;;;5116013;28;20262;-82
2024/01/27 09:08:41;;;;;;;4.78;2.33;;;;;;;;;;5115610;28;20266;-83
2024/01/27 09:11:09;;;;;;;3.83;2.65;;;;;;;;;;5111929;28;20204;-83
2024/01/27 09:13:36;;;;;;;4.43;2.90;;;;;;;;;;5106268;28;20252;-80
2024/01/27 09:16:04;;;;;;;5.68;2.30;;;;;;;;;;5109142;28;20805;-81
2024/01/27 09:18:32;;;;;;;3.80;3.28;;;;;;;;;;5110650;28;20314;-81
2024/01/27 09:21:01;;;;;;;3.83;2.30;;;;;;;;;;5105476;28;20670;-81
2024/01/27 09:23:28;;;;;;;6.15;3.50;;;;;;;;;;5090380;28;20248;-80
2024/01/27 09:25:55;;;;;;;5.93;3.50;;;;;;;;;;5108123;28;20234;-82
2024/01/27 09:28:23;;;;;;;3.70;2.78;;;;;;;;;;5109937;28;20271;-82
2024/01/27 09:30:51;;;;;;;6.07;3.15;;;;;;;;;;5101676;28;20208;-81
2024/01/27 09:33:19;;;;;;;5.07;2.70;;;;;;;;;;5103292;28;20212;-82
2024/01/27 09:35:47;;;;;;;5.80;2.35;;;;;;;;;;5107514;28;20597;-82
2024/01/27 09:38:16;;;;;;;1.83;1.65;;;;;;;;;;5105191;28;20208;-82
2024/01/27 09:40:44;;;;;;;5.35;2.65;;;;;;;;;;5105404;28;20212;-81
2024/01/27 09:43:14;;;;;;;3.10;2.10;;;;;;;;;;5106295;28;20256;-83
2024/01/27 09:45:42;;;;;;;5.43;1.80;;;;;;;;;;5118159;28;20224;-83
2024/01/27 09:48:11;;;;;;;4.38;2.83;;;;;;;;;;5108322;28;20227;-83
2024/01/27 09:50:40;;;;;;;6.88;2.97;;;;;;;;;;5117444;28;20644;-82
2024/01/27 09:53:08;;;;;;;7.15;2.10;;;;;;;;;;5108447;28;20210;-83
2024/01/27 09:55:37;;;;;;;3.75;2.08;;;;;;;;;;5101537;28;20678;-81
2024/01/27 09:58:05;;;;;;;4.25;1.67;;;;;;;;;;5100990;28;20242;-82
2024/01/27 10:00:34;;;;;;;2.92;1.90;;;;;;;;;;5101521;28;20643;-82
2024/01/27 10:03:03;;;;;;;2.60;2.00;;;;;;;;;;5099928;28;20588;-82
2024/01/27 10:05:31;;;;;;;5.40;1.60;;;;;;;;;;5102581;28;20252;-80
2024/01/27 10:07:58;;;;;;;7.82;2.97;;;;;;;;;;5102774;28;20735;-81
2024/01/27 10:10:26;;;;;;;3.88;1.90;;;;;;;;;;5103697;28;20204;-82
2024/01/27 10:12:55;;;;;;;3.00;1.63;;;;;;;;;;5115880;28;20204;-82
2024/01/27 10:15:23;;;;;;;2.20;1.92;;;;;;;;;;5118155;28;20223;-80
2024/01/27 10:17:51;;;;;;;5.40;2.67;;;;;;;;;;5103752;28;20196;-81
2024/01/27 10:20:19;;;;;;;11.48;2.15;;;;;;;;;;5095488;28;20197;-83
2024/01/27 10:22:46;;;;;;;2.88;1.98;;;;;;;;;;5112936;28;20211;-80
2024/01/27 10:25:14;;;;;;;4.20;1.70;;;;;;;;;;5111038;28;20254;-83
2024/01/27 10:27:42;;;;;;;6.57;2.45;;;;;;;;;;5111994;28;20327;-82
2024/01/27 10:30:18;;;;;;;8.07;2.97;;;;;;;;;;5103222;28;20299;-82
2024/01/27 10:32:55;;;;;;;5.68;2.80;;;;;;;;;;5101947;28;20286;-82
2024/01/27 10:35:23;;;;;;;3.38;1.90;;;;;;;;;;5106400;28;20231;-83
2024/01/27 10:37:54;;;;;;;8.82;2.42;;;;;;;;;;5100475;28;20214;-83
2024/01/27 10:40:24;;;;;;;7.25;3.72;;;;;;;;;;5105608;28;20195;-81
2024/01/27 10:43:02;;;;;;;4.60;2.20;;;;;;;;;;5114771;28;20203;-81
2024/01/27 10:45:36;;;;;;;4.72;2.30;;;;;;;;;;5104783;28;20331;-82
2024/01/27 10:48:05;;;;;;;5.15;1.90;;;;;;;;;;5106223;28;20228;-81
2024/01/27 10:50:38;;;;;;;3.50;1.85;;;;;;;;;;5106334;28;20204;-82
2024/01/27 10:53:06;;;;;;;3.80;1.70;;;;;;;;;;5094174;28;20200;-83
2024/01/27 10:55:35;;;;;;;4.32;1.85;;;;;;;;;;5091370;28;20224;-81
2024/01/27 10:58:04;;;;;;;3.17;1.55;;;;;;;;;;5097573;28;20201;-83
2024/01/27 11:00:34;;;;;;;4.80;1.67;;;;;;;;;;5101892;28;20659;-83
2024/01/27 11:03:04;;;;;;;3.53;1.70;;;;;;;;;;5104103;28;20208;-82
2024/01/27 11:05:33;;;;;;;3.83;1.90;;;;;;;;;;5110350;28;20234;-83
2024/01/27 11:08:01;;;;;;;3.10;1.48;;;;;;;;;;5118479;28;20270;-83
2024/01/27 11:10:35;;;;;;;3.75;1.90;;;;;;;;;;5110086;28;20287;-82
2024/01/27 11:13:03;;;;;;;6.00;1.60;;;;;;;;;;5109659;28;20199;-83
2024/01/27 11:15:32;;;;;;;3.83;1.85;;;;;;;;;;5100053;28;20735;-81
2024/01/27 11:18:01;;;;;;;3.28;1.67;;;;;;;;;;5116952;28;20291;-82
2024/01/27 11:20:31;;;;;;;3.20;1.63;;;;;;;;;;5105829;28;20618;-81
2024/01/27 11:23:10;;;;;;;6.07;3.83;;;;;;;;;;5106647;28;20263;-82
2024/01/27 11:25:38;;;;;;;4.18;1.88;;;;;;;;;;5120561;28;20219;-80
2024/01/27 11:28:14;;;;;;;3.97;1.92;;;;;;;;;;5107852;28;20315;-84
2024/01/27 11:30:47;;;;;;;6.63;2.55;;;;;;;;;;5102705;28;20203;-84
2024/01/27 11:33:15;;;;;;;9.15;2.45;;;;;;;;;;5096690;28;20238;-84
2024/01/27 11:35:42;;;;;;;3.03;2.13;;;;;;;;;;5102664;28;20220;-83
2024/01/27 11:38:10;;;;;;;4.75;2.00;;;;;;;;;;5107405;28;20208;-83
2024/01/27 11:40:47;;;;;;;8.27;2.17;;;;;;;;;;5119524;28;20285;-81
2024/01/27 11:43:14;;;;;;;1.90;1.55;;;;;;;;;;5094626;28;20574;-84
2024/01/27 11:45:43;;;;;;;3.47;1.60;;;;;;;;;;5104163;28;20342;-82
2024/01/27 11:48:11;;;;;;;3.08;1.55;;;;;;;;;;5114030;28;20223;-84
2024/01/27 11:50:38;;;;;;;4.28;2.15;;;;;;;;;;5106201;28;20295;-83
2024/01/27 11:53:09;;;;;;;4.47;2.08;;;;;;;;;;5111504;28;20311;-82
2024/01/27 11:55:37;;;;;;;2.50;1.40;;;;;;;;;;5106211;28;20270;-83
2024/01/27 11:58:04;;;;;;;3.53;1.80;;;;;;;;;;5102775;28;20722;-82
2024/01/27 12:00:32;;;;;;;3.17;1.65;;;;;;;;;;5100464;28;20558;-84
2024/01/27 12:03:01;;;;;;;3.33;1.60;;;;;;;;;;5101352;28;20280;-82
2024/01/27 12:05:28;;;;;;;2.63;1.80;;;;;;;;;;5118407;28;20227;-82
2024/01/27 12:07:56;;;;;;;2.28;1.35;;;;;;;;;;5109436;28;20224;-84
2024/01/27 12:10:23;;;;;;;3.50;1.35;;;;;;;;;;5103065;28;20291;-83
2024/01/27 12:12:51;;;;;;;2.92;1.88;;;;;;;;;;5108547;28;20240;-82
2024/01/27 12:15:20;;;;;;;3.30;2.22;;;;;;;;;;5107972;28;20224;-83
2024/01/27 12:17:52;;;;;;;3.83;1.83;;;;;;;;;;5103159;28;20234;-81
2024/01/27 12:20:21;;;;;;;2.88;1.83;;;;;;;;;;5097550;28;20201;-83
2024/01/27 12:22:49;;;;;;;5.30;2.25;;;;;;;;;;5091403;28;20236;-83
2024/01/27 12:25:17;;;;;;;3.00;2.10;;;;;;;;;;5111822;28;20223;-84
2024/01/27 12:27:45;;;;;;;2.97;1.75;;;;;;;;;;5111940;28;20214;-82
2024/01/27 12:30:14;;;;;;;4.65;2.55;;;;;;;;;;5092930;28;20295;-82
2024/01/27 12:32:41;;;;;;;5.10;2.25;;;;;;;;;;5102066;28;20264;-83
2024/01/27 12:35:10;;;;;;;4.68;2.45;;;;;;;;;;5102931;28;20754;-81
2024/01/27 12:37:39;;;;;;;5.00;2.00;;;;;;;;;;5100771;28;20210;-83
2024/01/27 12:40:19;;;;;;;3.72;2.63;;;;;;;;;;5103963;28;20421;-83
2024/01/27 12:42:46;;;;;;;5.25;2.40;;;;;;;;;;5107803;28;20690;-81
2024/01/27 12:45:14;;;;;;;6.30;2.53;;;;;;;;;;5107259;28;20223;-81
2024/01/27 12:47:42;;;;;;;2.05;1.85;;;;;;;;;;5108762;28;20214;-81
2024/01/27 12:50:10;;;;;;;7.68;3.00;;;;;;;;;;5099491;28;20228;-81
2024/01/27 12:52:40;;;;;;;4.78;2.20;;;;;;;;;;5107231;28;20643;-79
2024/01/27 12:55:08;;;;;;;4.15;2.10;;;;;;;;;;5096502;28;20224;-81
2024/01/27 12:57:36;;;;;;;2.47;1.60;;;;;;;;;;5096447;28;20671;-80
2024/01/27 13:00:09;;;;;;;3.20;2.35;;;;;;;;;;5096247;28;20204;-81
2024/01/27 13:02:37;;;;;;;1.80;1.70;;;;;;;;;;5096402;28;20232;-79
2024/01/27 13:05:06;;;;;;;3.95;2.08;;;;;;;;;;5096053;28;20224;-81
2024/01/27 13:07:33;;;;;;;4.38;1.90;;;;;;;;;;5111128;28;20214;-80
2024/01/27 13:10:02;;;;;;;2.28;1.30;;;;;;;;;;5114323;28;20222;-79
2024/01/27 13:12:30;;;;;;;2.17;1.77;;;;;;;;;;5104002;28;20208;-81
2024/01/27 13:14:57;;;;;;;5.40;2.00;;;;;;;;;;5105229;28;20295;-79
2024/01/27 13:17:24;;;;;;;3.38;1.95;;;;;;;;;;5115920;28;20210;-81
2024/01/27 13:19:52;;;;;;;2.45;1.77;;;;;;;;;;5108231;28;20200;-80
2024/01/27 13:22:24;;;;;;;6.18;2.63;;;;;;;;;;5116728;28;20196;-79
2024/01/27 13:24:51;;;;;;;6.53;2.80;;;;;;;;;;5098722;28;20268;-78
2024/01/27 13:27:20;;;;;;;3.97;2.47;;;;;;;;;;5108780;28;20200;-80
2024/01/27 13:29:47;;;;;;;8.00;3.42;;;;;;;;;;5098861;28;20224;-81
2024/01/27 13:32:15;;;;;;;5.50;2.03;;;;;;;;;;5108385;28;20215;-81
2024/01/27 13:34:43;;;;;;;5.57;2.20;;;;;;;;;;5107000;28;20218;-80
2024/01/27 13:37:11;;;;;;;3.83;2.92;;;;;;;;;;5105689;28;20215;-81
2024/01/27 13:39:38;;;;;;;3.65;2.30;;;;;;;;;;5116348;28;20199;-80
2024/01/27 13:42:06;;;;;;;1.60;1.42;;;;;;;;;;5115699;28;20210;-80
2024/01/27 13:44:35;;;;;;;4.65;2.20;;;;;;;;;;5115811;28;20200;-79
2024/01/27 13:47:04;;;;;;;4.38;2.45;;;;;;;;;;5113375;28;20310;-80
2024/01/27 13:49:32;;;;;;;4.88;2.20;;;;;;;;;;5101470;28;20682;-79
2024/01/27 13:51:59;;;;;;;7.40;2.88;;;;;;;;;;5114442;28;20208;-80
2024/01/27 13:54:27;;;;;;;6.10;2.58;;;;;;;;;;5100861;28;20205;-80
2024/01/27 13:56:54;;;;;;;5.63;2.60;;;;;;;;;;5094640;28;20224;-80
2024/01/27 13:59:21;;;;;;;2.97;1.95;;;;;;;;;;5095048;28;20283;-80
2024/01/27 14:01:51;;;;;;;4.60;2.33;;;;;;;;;;5094628;28;20649;-80
2024/01/27 14:04:18;;;;;;;4.03;1.60;;;;;;;;;;5099362;28;20210;-80
2024/01/27 14:06:45;;;;;;;5.93;2.22;;;;;;;;;;5099218;28;20224;-80
2024/01/27 14:09:14;;;;;;;3.25;2.35;;;;;;;;;;5094845;28;20231;-79
2024/01/27 14:11:41;;;;;;;7.18;2.70;;;;;;;;;;5103571;28;20207;-79
2024/01/27 14:14:08;;;;;;;4.78;3.05;;;;;;;;;;5103859;28;20208;-80
2024/01/27 14:16:36;;;;;;;4.80;2.45;;;;;;;;;;5094999;28;20224;-79
2024/01/27 14:19:06;;;;;;;6.50;3.22;;;;;;;;;;5096887;28;20288;-80
2024/01/27 14:21:33;;;;;;;6.72;3.45;;;;;;;;;;5107662;28;20236;-80
2024/01/27 14:24:04;;;;;;;8.48;3.45;;;;;;;;;;5104644;28;20204;-79
2024/01/27 14:26:32;;;;;;;5.60;2.83;;;;;;;;;;5108807;28;20314;-78
2024/01/27 14:29:00;;;;;;;4.28;2.33;;;;;;;;;;5115986;28;20210;-80
2024/01/27 14:31:30;;;;;;;6.20;3.53;;;;;;;;;;5107092;28;20204;-80
2024/01/27 14:33:58;;;;;;;4.03;2.33;;;;;;;;;;5100286;28;20202;-80
2024/01/27 14:36:26;;;;;;;3.45;2.30;;;;;;;;;;5105886;28;20245;-79
2024/01/27 14:38:54;;;;;;;2.90;2.10;;;;;;;;;;5116920;28;20235;-80
2024/01/27 14:41:23;;;;;;;4.95;2.45;;;;;;;;;;5113759;28;20200;-80
2024/01/27 14:43:51;;;;;;;2.60;1.90;;;;;;;;;;5107742;28;20336;-79
2024/01/27 14:46:19;;;;;;;2.63;2.05;;;;;;;;;;5106191;28;20224;-80
2024/01/27 14:48:47;;;;;;;3.80;2.90;;;;;;;;;;5098210;28;20247;-79